createdAt,value
2023-02-27T00:02:39.647Z,1.2
2023-02-27T00:05:41.618Z,1.5
2023-02-27T00:08:43.636Z,1.3
2023-02-27T00:11:45.562Z,1.2
2023-02-27T00:14:47.502Z,1.4
2023-02-27T00:17:49.482Z,1.5
2023-02-27T00:20:51.431Z,1.7
2023-02-27T00:23:53.411Z,1.3
2023-02-27T00:26:55.375Z,1.2
2023-02-27T00:29:57.351Z,1.3
2023-02-27T00:32:59.314Z,1.5
2023-02-27T00:36:01.277Z,1.4
2023-02-27T00:39:03.243Z,1.8
2023-02-27T00:42:05.205Z,1.1
2023-02-27T00:45:07.164Z,1.1
2023-02-27T00:48:09.106Z,1.2
2023-02-27T00:51:11.183Z,1.7
2023-02-27T00:54:13.039Z,1.5
2023-02-27T00:57:15.040Z,1.5
2023-02-27T01:00:16.972Z,1.3
2023-02-27T01:03:18.937Z,1.4
2023-02-27T01:06:20.916Z,1.2
2023-02-27T01:09:22.873Z,1.4
2023-02-27T01:12:24.869Z,1.5
2023-02-27T01:15:26.845Z,1.3
2023-02-27T01:18:28.794Z,1.5
2023-02-27T01:21:30.729Z,1.7
2023-02-27T01:24:32.717Z,1.3
2023-02-27T01:27:34.704Z,1.5
2023-02-27T01:30:36.686Z,1.3
2023-02-27T01:33:38.667Z,1.4
2023-02-27T01:36:40.644Z,1.3
2023-02-27T01:39:42.598Z,1.4
2023-02-27T01:42:44.565Z,1.2
2023-02-27T01:45:46.551Z,1.4
2023-02-27T01:48:48.566Z,1.5
2023-02-27T01:51:50.526Z,1.5
2023-02-27T01:54:52.518Z,1.2
2023-02-27T01:57:54.455Z,1.4
2023-02-27T02:00:56.433Z,1.3
2023-02-27T02:03:58.382Z,1.2
2023-02-27T02:07:00.369Z,1.4
2023-02-27T02:10:02.347Z,1.5
2023-02-27T02:13:04.276Z,1.3
2023-02-27T02:16:06.226Z,1.4
2023-02-27T02:19:08.190Z,1.4
2023-02-27T02:22:10.173Z,1.7
2023-02-27T02:25:12.106Z,1.5
2023-02-27T02:28:14.140Z,1.2
2023-02-27T02:31:16.126Z,1.3
2023-02-27T02:34:18.001Z,1.4
2023-02-27T02:37:19.975Z,1.2
2023-02-27T02:40:21.935Z,1.4
2023-02-27T02:43:23.888Z,1.3
2023-02-27T02:46:25.902Z,1.1
2023-02-27T02:49:27.838Z,1.1
2023-02-27T02:52:29.804Z,1.3
2023-02-27T02:55:31.777Z,1.1
2023-02-27T02:58:33.732Z,1.4
2023-02-27T03:01:35.719Z,1.1
2023-02-27T03:04:37.693Z,1.4
2023-02-27T03:07:39.647Z,1.6
2023-02-27T03:10:41.557Z,1.7
2023-02-27T03:13:43.528Z,1.7
2023-02-27T03:16:45.522Z,1.4
2023-02-27T03:19:47.476Z,1.5
2023-02-27T03:22:49.423Z,1.2
2023-02-27T03:25:51.391Z,1.2
2023-02-27T03:28:53.364Z,1.1
2023-02-27T03:31:55.418Z,1.3
2023-02-27T03:34:57.290Z,1.1
2023-02-27T03:37:59.244Z,1.3
2023-02-27T03:41:01.193Z,1.2
2023-02-27T03:44:03.164Z,1.1
2023-02-27T03:47:05.148Z,1.2
2023-02-27T03:50:07.103Z,1.3
2023-02-27T03:53:09.059Z,1.3
2023-02-27T03:56:11.021Z,1
2023-02-27T03:59:12.996Z,1.1
2023-02-27T04:02:14.973Z,1.2
2023-02-27T04:05:16.912Z,1.3
2023-02-27T04:08:18.891Z,1.2
2023-02-27T04:11:20.852Z,1.1
2023-02-27T04:14:22.828Z,1.2
2023-02-27T04:17:24.790Z,1.1
2023-02-27T04:20:26.749Z,1.1
2023-02-27T04:23:28.724Z,1.1
2023-02-27T04:26:30.669Z,1.4
2023-02-27T04:29:32.649Z,1
2023-02-27T04:32:34.748Z,1.3
2023-02-27T04:35:36.560Z,1.2
2023-02-27T04:38:38.524Z,1.9
2023-02-27T04:41:40.513Z,1.2
2023-02-27T04:44:42.481Z,1
2023-02-27T04:47:44.451Z,1.3
2023-02-27T04:50:46.397Z,1.4
2023-02-27T04:53:48.350Z,1.3
2023-02-27T04:56:50.352Z,1.1
2023-02-27T04:59:52.293Z,1.1
2023-02-27T05:02:54.309Z,1.3
2023-02-27T05:05:56.217Z,1.1
2023-02-27T05:08:58.192Z,1
2023-02-27T05:12:00.151Z,1
2023-02-27T05:15:02.100Z,1.1
2023-02-27T05:18:04.125Z,1.3
2023-02-27T05:21:06.012Z,1.6
2023-02-27T05:24:07.976Z,1.2
2023-02-27T05:27:09.937Z,1.1
2023-02-27T05:30:11.896Z,1.2
2023-02-27T05:33:13.880Z,1.4
2023-02-27T05:36:15.879Z,1.2
2023-02-27T05:39:17.807Z,1.1
2023-02-27T05:42:19.774Z,1.2
2023-02-27T05:45:21.752Z,1.3
2023-02-27T05:48:23.703Z,1.1
2023-02-27T05:51:25.947Z,1.2
2023-02-27T05:54:27.632Z,1.1
2023-02-27T05:57:29.600Z,1.8
2023-02-27T06:00:31.560Z,1.8
2023-02-27T06:03:33.562Z,1.3
2023-02-27T06:06:35.495Z,1.7
2023-02-27T06:09:37.445Z,1.2
2023-02-27T06:12:39.613Z,1.3
2023-02-27T06:15:41.375Z,1.5
2023-02-27T06:18:43.338Z,1.1
2023-02-27T06:21:45.301Z,1.4
2023-02-27T06:24:47.267Z,1.2
2023-02-27T06:27:49.205Z,1.5
2023-02-27T06:30:51.238Z,1.2
2023-02-27T06:33:53.132Z,1.7
2023-02-27T06:36:55.093Z,1.3
2023-02-27T06:39:57.046Z,1.5
2023-02-27T06:42:59.009Z,1.6
2023-02-27T06:46:01.082Z,1.5
2023-02-27T06:49:02.994Z,1.5
2023-02-27T06:52:04.958Z,1.5
2023-02-27T06:55:06.918Z,2
2023-02-27T06:58:08.921Z,1.7
2023-02-27T07:01:10.856Z,1.7
2023-02-27T07:04:12.808Z,1.5
2023-02-27T07:07:31.225Z,1.4
2023-02-27T07:10:16.737Z,1.5
2023-02-27T07:13:19.591Z,2
2023-02-27T07:16:20.651Z,1.7
2023-02-27T07:19:22.594Z,1.6
2023-02-27T07:22:24.548Z,1.5
2023-02-27T07:25:26.530Z,1.9
2023-02-27T07:28:28.490Z,2
2023-02-27T07:31:30.468Z,2
2023-02-27T07:34:32.415Z,1.5
2023-02-27T07:37:34.408Z,1.8
2023-02-27T07:40:36.347Z,1.7
2023-02-27T07:43:38.303Z,1.7
2023-02-27T07:46:40.365Z,1.6
2023-02-27T07:47:48.790Z,1.6
2023-02-27T07:49:42.256Z,1.5
2023-02-27T07:52:44.226Z,1.4
2023-02-27T07:55:46.199Z,1.7
2023-02-27T07:58:48.164Z,1.6
2023-02-27T08:01:50.157Z,1.7
2023-02-27T08:04:52.180Z,1.5
2023-02-27T08:07:54.071Z,1.8
2023-02-27T08:10:56.018Z,1.6
2023-02-27T08:14:00.799Z,1.7
2023-02-27T08:16:59.970Z,1.7
2023-02-27T08:20:01.943Z,1.7
2023-02-27T08:23:03.900Z,1.8
2023-02-27T08:26:05.844Z,2.2
2023-02-27T08:29:07.811Z,1.9
2023-02-27T08:32:09.833Z,1.7
2023-02-27T08:35:11.722Z,1.5
2023-02-27T08:38:13.688Z,1.7
2023-02-27T08:41:15.645Z,1.7
2023-02-27T08:44:17.756Z,1.6
2023-02-27T08:47:19.587Z,1.6
2023-02-27T08:50:21.550Z,1.9
2023-02-27T08:53:23.516Z,2.1
2023-02-27T08:56:25.870Z,2
2023-02-27T08:59:27.455Z,1.6
2023-02-27T09:02:29.451Z,1.5
2023-02-27T09:05:31.389Z,1.6
2023-02-27T09:08:33.355Z,1.8
2023-02-27T09:11:36.876Z,1.7
2023-02-27T09:14:37.276Z,1.3
2023-02-27T09:17:39.248Z,1.8
2023-02-27T09:20:41.193Z,1.3
2023-02-27T09:23:43.153Z,1.4
2023-02-27T09:26:46.202Z,1.2
2023-02-27T09:29:47.100Z,1.3
2023-02-27T09:32:49.109Z,1.1
2023-02-27T09:35:51.063Z,1.5
2023-02-27T09:38:52.978Z,1.3
2023-02-27T09:41:54.938Z,1.3
2023-02-27T09:44:56.919Z,1.3
2023-02-27T09:47:58.934Z,1.2
2023-02-27T09:51:00.885Z,1
2023-02-27T09:54:02.870Z,1
2023-02-27T09:57:04.819Z,1.1
2023-02-27T10:00:06.800Z,1.4
2023-02-27T10:03:08.798Z,1.1
2023-02-27T10:06:10.714Z,1.3
2023-02-27T10:09:12.745Z,1
2023-02-27T10:12:14.724Z,0.9
2023-02-27T10:15:19.828Z,1.1
2023-02-27T10:18:27.570Z,1.1
2023-02-27T10:21:23.887Z,1.5
2023-02-27T10:24:25.875Z,1.3
2023-02-27T10:27:27.836Z,0.9
2023-02-27T10:30:31.895Z,1
2023-02-27T10:33:31.780Z,1.1
2023-02-27T10:36:34.740Z,1
2023-02-27T10:39:35.773Z,1.1
2023-02-27T10:42:38.476Z,0.9
2023-02-27T10:45:39.722Z,1
2023-02-27T10:48:41.687Z,0.9
2023-02-27T10:51:43.636Z,1.5
2023-02-27T10:54:45.585Z,1.5
2023-02-27T10:57:47.558Z,1.1
2023-02-27T11:00:49.678Z,1.1
2023-02-27T11:03:51.684Z,1.2
2023-02-27T11:06:53.696Z,1.3
2023-02-27T11:09:55.659Z,1.8
2023-02-27T11:12:57.602Z,1.3
2023-02-27T11:15:59.630Z,1.2
2023-02-27T11:19:01.536Z,1.3
2023-02-27T11:22:03.493Z,1.3
2023-02-27T11:25:05.530Z,1.4
2023-02-27T11:28:10.485Z,1.6
2023-02-27T11:31:12.467Z,1.6
2023-02-27T11:34:14.471Z,1.5
2023-02-27T11:37:16.382Z,1.5
2023-02-27T11:40:18.362Z,1.9
2023-02-27T11:43:20.332Z,1.4
2023-02-27T11:46:36.178Z,1.2
2023-02-27T11:49:24.358Z,1.2
2023-02-27T11:52:26.332Z,1.3
2023-02-27T11:55:28.368Z,1.8
2023-02-27T11:58:30.255Z,0.9
2023-02-27T12:01:32.211Z,1.2
2023-02-27T12:04:34.160Z,1.5
2023-02-27T12:07:36.135Z,1.3
2023-02-27T12:10:38.098Z,1.1
2023-02-27T12:13:40.088Z,1.1
2023-02-27T12:16:42.111Z,1.1
2023-02-27T12:19:44.048Z,0.9
2023-02-27T12:22:46.009Z,1
2023-02-27T12:25:47.995Z,0.8
2023-02-27T12:28:49.969Z,0.6
2023-02-27T12:31:52.079Z,0.9
2023-02-27T12:34:53.931Z,0.7
2023-02-27T12:37:55.993Z,0.7
2023-02-27T12:40:57.971Z,0.7
2023-02-27T12:43:59.998Z,0.7
2023-02-27T12:47:02.059Z,0.6
2023-02-27T12:50:03.912Z,0.6
2023-02-27T12:53:05.895Z,0.8
2023-02-27T12:56:07.869Z,0.6
2023-02-27T12:59:09.802Z,0.5
2023-02-27T13:02:11.799Z,0.6
2023-02-27T13:05:13.789Z,0.7
2023-02-27T13:08:15.776Z,0.8
2023-02-27T13:11:17.755Z,0.6
2023-02-27T13:14:19.718Z,0.6
2023-02-27T13:17:21.739Z,0.8
2023-02-27T13:20:23.699Z,0.7
2023-02-27T13:23:25.827Z,0.6
2023-02-27T13:26:27.637Z,0.7
2023-02-27T13:29:29.633Z,0.6
2023-02-27T13:32:43.018Z,0.5
2023-02-27T13:35:33.637Z,1.3
2023-02-27T13:38:35.553Z,0.5
2023-02-27T13:41:37.531Z,0.6
2023-02-27T13:44:39.491Z,0.7
2023-02-27T13:47:41.502Z,0.8
2023-02-27T13:50:43.543Z,0.6
2023-02-27T13:53:45.585Z,0.6
2023-02-27T13:56:47.567Z,0.6
2023-02-27T13:59:49.528Z,0.7
2023-02-27T14:02:59.099Z,0.4
2023-02-27T14:05:53.504Z,0.6
2023-02-27T14:09:02.102Z,0.6
2023-02-27T14:11:57.498Z,0.4
2023-02-27T14:14:59.440Z,0.6
2023-02-27T14:18:12.570Z,0.6
2023-02-27T14:21:03.408Z,0.5
2023-02-27T14:24:05.385Z,0.6
2023-02-27T14:27:07.343Z,0.5
2023-02-27T14:30:09.308Z,0.6
2023-02-27T14:33:11.275Z,0.5
2023-02-27T14:36:13.256Z,0.7
2023-02-27T14:39:15.232Z,0.5
2023-02-27T14:42:17.450Z,0.4
2023-02-27T14:45:20.427Z,0.5
2023-02-27T14:48:21.122Z,0.6
2023-02-27T14:51:23.079Z,0.7
2023-02-27T14:54:25.063Z,0.7
2023-02-27T14:57:27.181Z,0.6
2023-02-27T15:00:28.994Z,0.5
2023-02-27T15:03:30.982Z,0.6
2023-02-27T15:06:32.925Z,0.5
2023-02-27T15:09:35.030Z,0.6
2023-02-27T15:12:36.858Z,0.4
2023-02-27T15:15:38.827Z,0.5
2023-02-27T15:18:40.801Z,0.6
2023-02-27T15:21:42.781Z,0.6
2023-02-27T15:24:50.181Z,0.5
2023-02-27T15:27:46.735Z,0.5
2023-02-27T15:30:48.876Z,0.7
2023-02-27T15:33:50.695Z,1
2023-02-27T15:36:52.662Z,0.8
2023-02-27T15:39:54.620Z,0.8
2023-02-27T15:42:56.574Z,0.6
2023-02-27T15:45:58.555Z,0.6
2023-02-27T15:49:00.531Z,0.6
2023-02-27T15:52:02.489Z,0.8
2023-02-27T15:55:04.440Z,0.9
2023-02-27T15:58:06.424Z,0.8
2023-02-27T16:01:08.423Z,0.7
2023-02-27T16:04:10.350Z,0.8
2023-02-27T16:07:12.307Z,0.9
2023-02-27T16:10:14.286Z,1
2023-02-27T16:13:16.225Z,1.1
2023-02-27T16:16:18.212Z,1.3
2023-02-27T16:19:20.172Z,1.4
2023-02-27T16:22:22.128Z,0.8
2023-02-27T16:25:24.137Z,0.9
2023-02-27T16:28:26.162Z,0.9
2023-02-27T16:31:28.133Z,0.9
2023-02-27T16:34:44.162Z,0.7
2023-02-27T16:37:32.077Z,0.8
2023-02-27T16:40:34.164Z,1.1
2023-02-27T16:43:35.985Z,1
2023-02-27T16:46:37.949Z,0.9
2023-02-27T16:49:39.913Z,0.9
2023-02-27T16:52:42.048Z,0.8
2023-02-27T16:55:43.858Z,0.9
2023-02-27T16:58:45.784Z,0.9
2023-02-27T17:01:47.743Z,0.8
2023-02-27T17:04:49.830Z,0.7
2023-02-27T17:07:51.667Z,0.5
2023-02-27T17:10:53.658Z,0.7
2023-02-27T17:13:55.620Z,1.1
2023-02-27T17:16:58.685Z,1.1
2023-02-27T17:19:59.572Z,1.2
2023-02-27T17:23:01.517Z,1
2023-02-27T17:26:03.467Z,1.2
2023-02-27T17:29:05.432Z,0.8
2023-02-27T17:32:07.413Z,1.3
2023-02-27T17:35:09.352Z,1.2
2023-02-27T17:38:11.313Z,0.9
2023-02-27T17:41:13.256Z,1
2023-02-27T17:44:15.225Z,1
2023-02-27T17:47:17.182Z,1.1
2023-02-27T17:50:19.262Z,1
2023-02-27T17:53:21.180Z,1
2023-02-27T17:56:23.048Z,1.1
2023-02-27T17:59:25.008Z,1
2023-02-27T18:02:27.023Z,1.2
2023-02-27T18:05:28.946Z,0.8
2023-02-27T18:08:30.924Z,0.8
2023-02-27T18:11:32.873Z,0.9
2023-02-27T18:14:34.835Z,1
2023-02-27T18:17:36.789Z,1.1
2023-02-27T18:20:38.758Z,1
2023-02-27T18:23:40.752Z,1.3
2023-02-27T18:26:42.705Z,1.1
2023-02-27T18:29:44.676Z,1.2
2023-02-27T18:32:46.669Z,1.5
2023-02-27T18:35:48.612Z,1.3
2023-02-27T18:38:50.567Z,1.3
2023-02-27T18:41:52.525Z,1
2023-02-27T18:44:54.482Z,1.5
2023-02-27T18:47:56.443Z,1.4
2023-02-27T18:50:58.419Z,1.5
2023-02-27T18:54:00.370Z,1.7
2023-02-27T18:57:02.318Z,1.6
2023-02-27T19:00:04.278Z,1.6
2023-02-27T19:03:06.295Z,1.5
2023-02-27T19:06:08.187Z,1.7
2023-02-27T19:09:10.148Z,1.5
2023-02-27T19:12:12.105Z,1.7
2023-02-27T19:15:14.075Z,1.3
2023-02-27T19:18:16.039Z,1.6
2023-02-27T19:21:18.085Z,1.9
2023-02-27T19:24:19.949Z,2
2023-02-27T19:27:21.919Z,2
2023-02-27T19:30:23.871Z,2
2023-02-27T19:33:25.844Z,2
2023-02-27T19:36:27.973Z,1.9
2023-02-27T19:39:29.729Z,1.7
2023-02-27T19:42:31.693Z,1.7
2023-02-27T19:45:33.666Z,2.4
2023-02-27T19:48:35.631Z,2
2023-02-27T19:51:37.570Z,1.9
2023-02-27T19:54:39.539Z,1.5
2023-02-27T19:57:41.486Z,2.5
2023-02-27T20:00:43.518Z,2.2
2023-02-27T20:03:45.461Z,2.8
2023-02-27T20:06:47.384Z,2.8
2023-02-27T20:09:49.329Z,2.1
2023-02-27T20:12:51.296Z,1.9
2023-02-27T20:15:53.264Z,2
2023-02-27T20:18:55.216Z,1.8
2023-02-27T20:21:57.181Z,2
2023-02-27T20:24:59.153Z,1.7
2023-02-27T20:28:01.104Z,1.5
2023-02-27T20:31:03.050Z,1.5
2023-02-27T20:34:05.015Z,1.6
2023-02-27T20:37:06.969Z,1.7
2023-02-27T20:40:08.933Z,2
2023-02-27T20:43:10.904Z,1.8
2023-02-27T20:46:12.962Z,1.7
2023-02-27T20:49:14.874Z,1.6
2023-02-27T20:52:16.816Z,1.8
2023-02-27T20:55:18.772Z,1.7
2023-02-27T20:58:20.727Z,1.9
2023-02-27T21:01:22.829Z,2
2023-02-27T21:04:24.762Z,1.6
2023-02-27T21:07:26.628Z,1.8
2023-02-27T21:10:28.587Z,1.5
2023-02-27T21:13:30.553Z,1.7
2023-02-27T21:16:32.508Z,1.7
2023-02-27T21:19:34.479Z,1.8
2023-02-27T21:22:36.460Z,1.9
2023-02-27T21:25:38.429Z,1.8
2023-02-27T21:28:40.374Z,2.1
2023-02-27T21:31:42.340Z,2.2
2023-02-27T21:34:44.300Z,1.9
2023-02-27T21:37:46.261Z,1.8
2023-02-27T21:40:48.201Z,2
2023-02-27T21:43:50.178Z,1.9
2023-02-27T21:46:52.132Z,1.8
2023-02-27T21:49:54.084Z,1.8
2023-02-27T21:52:56.049Z,2.3
2023-02-27T21:55:58.013Z,2
2023-02-27T21:58:59.980Z,2
2023-02-27T22:02:01.975Z,2.3
2023-02-27T22:05:03.907Z,1.8
2023-02-27T22:08:05.864Z,1.8
2023-02-27T22:11:07.855Z,1.5
2023-02-27T22:14:09.840Z,1.8
2023-02-27T22:17:11.770Z,1.6
2023-02-27T22:20:13.752Z,1.6
2023-02-27T22:23:15.697Z,1.4
2023-02-27T22:26:17.688Z,1.5
2023-02-27T22:29:19.632Z,1.4
2023-02-27T22:32:21.635Z,1.5
2023-02-27T22:35:23.609Z,1.7
2023-02-27T22:38:25.531Z,1.7
2023-02-27T22:41:27.873Z,1.5
2023-02-27T22:44:29.431Z,2
2023-02-27T22:47:31.385Z,1.5
2023-02-27T22:50:33.345Z,1.8
2023-02-27T22:53:35.299Z,1.7
2023-02-27T22:56:37.282Z,1.7
2023-02-27T22:59:39.571Z,1.5
2023-02-27T23:02:41.192Z,1.8
2023-02-27T23:05:43.154Z,1.7
2023-02-27T23:08:45.109Z,1.4
2023-02-27T23:11:47.066Z,1.5
2023-02-27T23:14:49.249Z,1.7
2023-02-27T23:17:57.672Z,1.8
2023-02-27T23:20:53.015Z,1.6
2023-02-27T23:23:54.955Z,1.7
2023-02-27T23:26:56.899Z,1.3
2023-02-27T23:29:58.876Z,1.8
2023-02-27T23:33:00.830Z,1.6
2023-02-27T23:36:02.802Z,1.6
2023-02-27T23:39:04.753Z,1.8
2023-02-27T23:42:06.716Z,1.8
2023-02-27T23:45:08.732Z,2
2023-02-27T23:48:10.648Z,2
2023-02-27T23:51:12.620Z,2
2023-02-27T23:54:14.582Z,3
2023-02-27T23:57:16.529Z,2.1
